sensor_id;sensor_type;location;lat;lon;timestamp;P1;durP1;ratioP1;P2;durP2;ratioP2
75516;SDS011;64097;52.548;13.406;2023-01-04T06:02:44;3.92;;;3.28;;
75516;SDS011;64097;52.548;13.406;2023-01-04T06:05:10;4.85;;;3.75;;
75516;SDS011;64097;52.548;13.406;2023-01-04T06:07:36;3.20;;;2.88;;
75516;SDS011;64097;52.548;13.406;2023-01-04T06:10:04;5.38;;;3.70;;
75516;SDS011;64097;52.548;13.406;2023-01-04T06:12:31;4.57;;;3.53;;
75516;SDS011;64097;52.548;13.406;2023-01-04T06:14:57;4.53;;;3.38;;
75516;SDS011;64097;52.548;13.406;2023-01-04T06:17:22;3.42;;;3.13;;
75516;SDS011;64097;52.548;13.406;2023-01-04T06:19:48;4.05;;;3.35;;
75516;SDS011;64097;52.548;13.406;2023-01-04T06:22:14;4.38;;;3.33;;
75516;SDS011;64097;52.548;13.406;2023-01-04T06:24:39;4.25;;;3.30;;
75516;SDS011;64097;52.548;13.406;2023-01-04T06:27:05;6.05;;;3.20;;
75516;SDS011;64097;52.548;13.406;2023-01-04T06:29:31;3.28;;;2.83;;
75516;SDS011;64097;52.548;13.406;2023-01-04T06:31:56;4.43;;;3.05;;
75516;SDS011;64097;52.548;13.406;2023-01-04T06:34:22;4.30;;;2.95;;
75516;SDS011;64097;52.548;13.406;2023-01-04T06:36:48;4.32;;;2.88;;
75516;SDS011;64097;52.548;13.406;2023-01-04T06:39:14;5.22;;;3.13;;
75516;SDS011;64097;52.548;13.406;2023-01-04T06:41:39;4.45;;;3.33;;
75516;SDS011;64097;52.548;13.406;2023-01-04T06:44:05;5.25;;;3.63;;
75516;SDS011;64097;52.548;13.406;2023-01-04T06:46:31;3.83;;;3.05;;
75516;SDS011;64097;52.548;13.406;2023-01-04T06:48:58;3.45;;;2.88;;
75516;SDS011;64097;52.548;13.406;2023-01-04T06:51:27;5.03;;;2.90;;
75516;SDS011;64097;52.548;13.406;2023-01-04T06:53:52;3.38;;;2.75;;
75516;SDS011;64097;52.548;13.406;2023-01-04T06:56:18;3.20;;;2.75;;
75516;SDS011;64097;52.548;13.406;2023-01-04T06:58:44;3.75;;;2.42;;
75516;SDS011;64097;52.548;13.406;2023-01-04T07:01:10;3.53;;;2.83;;
75516;SDS011;64097;52.548;13.406;2023-01-04T07:03:35;5.05;;;2.97;;
75516;SDS011;64097;52.548;13.406;2023-01-04T07:06:04;3.40;;;2.22;;
75516;SDS011;64097;52.548;13.406;2023-01-04T07:08:32;5.20;;;2.60;;
75516;SDS011;64097;52.548;13.406;2023-01-04T07:10:58;2.95;;;2.50;;
75516;SDS011;64097;52.548;13.406;2023-01-04T07:13:24;2.85;;;2.25;;
75516;SDS011;64097;52.548;13.406;2023-01-04T07:15:50;3.85;;;2.50;;
75516;SDS011;64097;52.548;13.406;2023-01-04T07:18:16;3.22;;;2.15;;
75516;SDS011;64097;52.548;13.406;2023-01-04T07:20:42;4.28;;;2.35;;
75516;SDS011;64097;52.548;13.406;2023-01-04T07:23:07;2.30;;;2.10;;
75516;SDS011;64097;52.548;13.406;2023-01-04T07:25:33;2.92;;;2.10;;
75516;SDS011;64097;52.548;13.406;2023-01-04T07:27:59;2.60;;;2.15;;
75516;SDS011;64097;52.548;13.406;2023-01-04T07:30:25;2.88;;;2.35;;
75516;SDS011;64097;52.548;13.406;2023-01-04T07:32:52;3.92;;;2.25;;
75516;SDS011;64097;52.548;13.406;2023-01-04T07:35:20;3.50;;;2.67;;
75516;SDS011;64097;52.548;13.406;2023-01-04T07:37:46;3.85;;;2.15;;
75516;SDS011;64097;52.548;13.406;2023-01-04T07:40:12;4.95;;;2.47;;
75516;SDS011;64097;52.548;13.406;2023-01-04T07:42:39;3.72;;;1.92;;
75516;SDS011;64097;52.548;13.406;2023-01-04T07:45:05;2.85;;;1.73;;
75516;SDS011;64097;52.548;13.406;2023-01-04T07:47:31;2.90;;;1.77;;
75516;SDS011;64097;52.548;13.406;2023-01-04T07:49:57;3.80;;;2.38;;
75516;SDS011;64097;52.548;13.406;2023-01-04T07:52:24;3.40;;;2.00;;
75516;SDS011;64097;52.548;13.406;2023-01-04T07:54:50;5.07;;;2.30;;
75516;SDS011;64097;52.548;13.406;2023-01-04T07:57:16;3.70;;;2.05;;
75516;SDS011;64097;52.548;13.406;2023-01-04T07:59:42;3.00;;;2.40;;
75516;SDS011;64097;52.548;13.406;2023-01-04T08:02:12;3.40;;;2.28;;
75516;SDS011;64097;52.548;13.406;2023-01-04T08:04:38;2.58;;;2.03;;
75516;SDS011;64097;52.548;13.406;2023-01-04T08:07:04;3.40;;;2.22;;
75516;SDS011;64097;52.548;13.406;2023-01-04T08:09:30;5.28;;;2.25;;
75516;SDS011;64097;52.548;13.406;2023-01-04T08:11:56;3.83;;;2.05;;
75516;SDS011;64097;52.548;13.406;2023-01-04T08:14:22;2.60;;;1.88;;
75516;SDS011;64097;52.548;13.406;2023-01-04T08:16:47;4.55;;;2.17;;
75516;SDS011;64097;52.548;13.406;2023-01-04T08:19:14;3.30;;;1.83;;
75516;SDS011;64097;52.548;13.406;2023-01-04T08:21:41;3.25;;;1.98;;
75516;SDS011;64097;52.548;13.406;2023-01-04T08:24:12;3.33;;;1.70;;
75516;SDS011;64097;52.548;13.406;2023-01-04T08:26:39;2.80;;;1.70;;
75516;SDS011;64097;52.548;13.406;2023-01-04T08:29:05;2.70;;;1.67;;
75516;SDS011;64097;52.548;13.406;2023-01-04T08:31:31;2.42;;;1.67;;
75516;SDS011;64097;52.548;13.406;2023-01-04T08:34:00;2.72;;;1.75;;
75516;SDS011;64097;52.548;13.406;2023-01-04T08:36:32;2.85;;;1.75;;
75516;SDS011;64097;52.548;13.406;2023-01-04T08:39:03;3.85;;;1.90;;
75516;SDS011;64097;52.548;13.406;2023-01-04T08:41:30;4.93;;;1.95;;
75516;SDS011;64097;52.548;13.406;2023-01-04T08:43:57;2.90;;;1.88;;
75516;SDS011;64097;52.548;13.406;2023-01-04T08:46:23;2.97;;;2.03;;
75516;SDS011;64097;52.548;13.406;2023-01-04T08:48:52;3.28;;;2.10;;
75516;SDS011;64097;52.548;13.406;2023-01-04T08:51:18;1.92;;;1.70;;
75516;SDS011;64097;52.548;13.406;2023-01-04T08:53:44;3.28;;;1.90;;
75516;SDS011;64097;52.548;13.406;2023-01-04T08:56:10;3.28;;;1.73;;
75516;SDS011;64097;52.548;13.406;2023-01-04T08:58:36;3.17;;;2.30;;
75516;SDS011;64097;52.548;13.406;2023-01-04T09:01:04;2.72;;;2.00;;
75516;SDS011;64097;52.548;13.406;2023-01-04T09:03:35;2.70;;;1.77;;
75516;SDS011;64097;52.548;13.406;2023-01-04T09:06:03;2.50;;;1.70;;
75516;SDS011;64097;52.548;13.406;2023-01-04T09:08:32;3.85;;;2.00;;
75516;SDS011;64097;52.548;13.406;2023-01-04T09:11:03;2.97;;;1.70;;
75516;SDS011;64097;52.548;13.406;2023-01-04T09:13:30;3.03;;;1.60;;
75516;SDS011;64097;52.548;13.406;2023-01-04T09:16:04;3.15;;;1.95;;
75516;SDS011;64097;52.548;13.406;2023-01-04T09:18:32;4.30;;;2.20;;
75516;SDS011;64097;52.548;13.406;2023-01-04T09:20:59;2.83;;;2.08;;
75516;SDS011;64097;52.548;13.406;2023-01-04T09:23:39;4.50;;;2.15;;
75516;SDS011;64097;52.548;13.406;2023-01-04T09:26:06;2.67;;;2.00;;
75516;SDS011;64097;52.548;13.406;2023-01-04T09:28:33;2.35;;;1.92;;
75516;SDS011;64097;52.548;13.406;2023-01-04T09:31:03;3.13;;;1.98;;
75516;SDS011;64097;52.548;13.406;2023-01-04T09:33:30;2.42;;;1.80;;
75516;SDS011;64097;52.548;13.406;2023-01-04T09:36:01;3.00;;;2.17;;
75516;SDS011;64097;52.548;13.406;2023-01-04T09:38:28;3.45;;;1.98;;
75516;SDS011;64097;52.548;13.406;2023-01-04T09:49:04;3.92;;;2.20;;
75516;SDS011;64097;52.548;13.406;2023-01-04T09:51:44;3.00;;;2.22;;
75516;SDS011;64097;52.548;13.406;2023-01-04T09:57:31;3.60;;;2.17;;
75516;SDS011;64097;52.548;13.406;2023-01-04T10:00:01;3.97;;;2.25;;
75516;SDS011;64097;52.548;13.406;2023-01-04T10:02:47;3.35;;;2.08;;
75516;SDS011;64097;52.548;13.406;2023-01-04T10:05:18;3.22;;;2.38;;
75516;SDS011;64097;52.548;13.406;2023-01-04T10:07:46;4.93;;;2.88;;
75516;SDS011;64097;52.548;13.406;2023-01-04T10:10:13;3.75;;;2.50;;
75516;SDS011;64097;52.548;13.406;2023-01-04T10:15:46;4.43;;;2.50;;
75516;SDS011;64097;52.548;13.406;2023-01-04T10:26:44;3.50;;;2.60;;
75516;SDS011;64097;52.548;13.406;2023-01-04T10:32:03;3.05;;;2.35;;
75516;SDS011;64097;52.548;13.406;2023-01-04T10:34:32;3.50;;;2.50;;
75516;SDS011;64097;52.548;13.406;2023-01-04T10:37:21;4.03;;;2.88;;
75516;SDS011;64097;52.548;13.406;2023-01-04T10:39:53;3.15;;;2.50;;
75516;SDS011;64097;52.548;13.406;2023-01-04T10:42:30;3.70;;;2.92;;
75516;SDS011;64097;52.548;13.406;2023-01-04T10:47:50;3.20;;;2.60;;
75516;SDS011;64097;52.548;13.406;2023-01-04T10:50:28;3.65;;;2.70;;
75516;SDS011;64097;52.548;13.406;2023-01-04T11:01:04;2.85;;;2.40;;
75516;SDS011;64097;52.548;13.406;2023-01-04T11:08:42;3.47;;;2.40;;
75516;SDS011;64097;52.548;13.406;2023-01-04T11:11:17;3.90;;;2.88;;
75516;SDS011;64097;52.548;13.406;2023-01-04T11:13:49;4.68;;;2.50;;
75516;SDS011;64097;52.548;13.406;2023-01-04T11:16:14;2.70;;;2.40;;
75516;SDS011;64097;52.548;13.406;2023-01-04T11:18:40;3.03;;;2.42;;
75516;SDS011;64097;52.548;13.406;2023-01-04T11:21:08;4.57;;;2.78;;
75516;SDS011;64097;52.548;13.406;2023-01-04T11:23:37;3.05;;;2.70;;
75516;SDS011;64097;52.548;13.406;2023-01-04T11:26:07;3.55;;;2.67;;
75516;SDS011;64097;52.548;13.406;2023-01-04T11:31:20;4.57;;;2.70;;
75516;SDS011;64097;52.548;13.406;2023-01-04T11:33:59;3.97;;;2.75;;
75516;SDS011;64097;52.548;13.406;2023-01-04T11:38:58;3.25;;;2.42;;
75516;SDS011;64097;52.548;13.406;2023-01-04T11:41:24;2.55;;;2.33;;
75516;SDS011;64097;52.548;13.406;2023-01-04T11:44:04;2.38;;;2.08;;
75516;SDS011;64097;52.548;13.406;2023-01-04T11:46:31;3.03;;;2.15;;
75516;SDS011;64097;52.548;13.406;2023-01-04T11:48:58;2.47;;;2.10;;
75516;SDS011;64097;52.548;13.406;2023-01-04T11:54:04;2.65;;;2.28;;
75516;SDS011;64097;52.548;13.406;2023-01-04T11:56:36;2.83;;;2.10;;
75516;SDS011;64097;52.548;13.406;2023-01-04T12:01:35;2.70;;;2.10;;
75516;SDS011;64097;52.548;13.406;2023-01-04T12:04:13;3.25;;;2.45;;
75516;SDS011;64097;52.548;13.406;2023-01-04T12:07:04;2.10;;;1.90;;
75516;SDS011;64097;52.548;13.406;2023-01-04T12:09:39;2.47;;;1.90;;
75516;SDS011;64097;52.548;13.406;2023-01-04T12:12:05;2.47;;;1.90;;
75516;SDS011;64097;52.548;13.406;2023-01-04T12:14:33;2.15;;;1.75;;
75516;SDS011;64097;52.548;13.406;2023-01-04T12:17:11;2.95;;;1.80;;
75516;SDS011;64097;52.548;13.406;2023-01-04T12:19:58;3.45;;;2.03;;
75516;SDS011;64097;52.548;13.406;2023-01-04T12:22:36;2.78;;;1.80;;
75516;SDS011;64097;52.548;13.406;2023-01-04T12:25:05;2.47;;;1.90;;
75516;SDS011;64097;52.548;13.406;2023-01-04T12:27:46;2.75;;;1.98;;
75516;SDS011;64097;52.548;13.406;2023-01-04T12:30:31;2.83;;;1.80;;
75516;SDS011;64097;52.548;13.406;2023-01-04T12:33:04;3.58;;;1.83;;
75516;SDS011;64097;52.548;13.406;2023-01-04T12:35:59;2.67;;;2.08;;
75516;SDS011;64097;52.548;13.406;2023-01-04T12:44:00;2.33;;;1.88;;
75516;SDS011;64097;52.548;13.406;2023-01-04T13:02:28;2.67;;;1.60;;
75516;SDS011;64097;52.548;13.406;2023-01-04T13:05:23;2.10;;;1.65;;
75516;SDS011;64097;52.548;13.406;2023-01-04T13:07:51;2.47;;;1.90;;
75516;SDS011;64097;52.548;13.406;2023-01-04T13:10:19;2.00;;;1.67;;
75516;SDS011;64097;52.548;13.406;2023-01-04T13:18:44;2.35;;;1.73;;
75516;SDS011;64097;52.548;13.406;2023-01-04T13:23:50;2.33;;;1.75;;
75516;SDS011;64097;52.548;13.406;2023-01-04T13:26:27;2.42;;;1.83;;
75516;SDS011;64097;52.548;13.406;2023-01-04T13:29:15;2.30;;;1.80;;
75516;SDS011;64097;52.548;13.406;2023-01-04T13:31:48;2.88;;;1.88;;
75516;SDS011;64097;52.548;13.406;2023-01-04T13:37:01;1.90;;;1.67;;
75516;SDS011;64097;52.548;13.406;2023-01-04T13:39:31;2.00;;;1.70;;
75516;SDS011;64097;52.548;13.406;2023-01-04T13:41:58;3.80;;;2.28;;
75516;SDS011;64097;52.548;13.406;2023-01-04T13:44:27;2.25;;;1.88;;
75516;SDS011;64097;52.548;13.406;2023-01-04T13:46:54;1.67;;;1.58;;
75516;SDS011;64097;52.548;13.406;2023-01-04T13:49:21;2.55;;;1.95;;
75516;SDS011;64097;52.548;13.406;2023-01-04T13:51:48;2.08;;;1.85;;
75516;SDS011;64097;52.548;13.406;2023-01-04T13:54:18;2.67;;;1.88;;
75516;SDS011;64097;52.548;13.406;2023-01-04T13:56:45;1.88;;;1.75;;
75516;SDS011;64097;52.548;13.406;2023-01-04T13:59:11;2.13;;;1.92;;
